createdAt,value
2023-05-21T00:01:50.097Z,6.40
2023-05-21T00:04:19.642Z,5.97
2023-05-21T00:06:52.279Z,6.07
2023-05-21T00:11:53.744Z,6.50
2023-05-21T00:15:07.370Z,5.80
2023-05-21T00:18:35.538Z,5.80
2023-05-21T00:21:29.884Z,5.70
2023-05-21T00:24:22.470Z,6.43
2023-05-21T00:26:52.720Z,6.00
2023-05-21T00:29:22.485Z,5.68
2023-05-21T00:31:52.758Z,6.03
2023-05-21T00:34:22.366Z,5.50
2023-05-21T00:36:53.615Z,5.45
2023-05-21T00:39:26.119Z,5.95
2023-05-21T00:41:57.054Z,5.68
2023-05-21T00:44:27.250Z,6.07
2023-05-21T00:46:57.011Z,5.65
2023-05-21T00:49:26.748Z,6.05
2023-05-21T00:51:56.690Z,5.75
2023-05-21T00:54:28.933Z,6.15
2023-05-21T00:56:58.924Z,5.68
2023-05-21T00:59:28.688Z,5.60
2023-05-21T01:02:04.471Z,5.72
2023-05-21T01:04:34.436Z,6.13
2023-05-21T01:07:03.987Z,5.78
2023-05-21T01:09:36.106Z,5.50
2023-05-21T01:12:06.102Z,5.43
2023-05-21T01:14:37.656Z,5.33
2023-05-21T01:17:10.588Z,5.68
2023-05-21T01:19:40.535Z,5.55
2023-05-21T01:22:11.002Z,6.03
2023-05-21T01:24:47.667Z,5.57
2023-05-21T01:27:17.241Z,5.93
2023-05-21T01:29:46.814Z,5.95
2023-05-21T01:32:24.332Z,5.72
2023-05-21T01:35:02.488Z,5.53
2023-05-21T01:37:37.528Z,5.68
2023-05-21T01:40:16.401Z,5.63
2023-05-21T01:42:47.375Z,5.40
2023-05-21T01:45:19.355Z,5.78
2023-05-21T01:47:52.136Z,5.70
2023-05-21T01:50:22.469Z,5.75
2023-05-21T01:52:53.636Z,5.63
2023-05-21T01:55:27.070Z,5.60
2023-05-21T01:57:59.994Z,5.43
2023-05-21T02:00:32.757Z,5.95
2023-05-21T02:03:02.428Z,6.43
2023-05-21T02:12:46.159Z,5.68
2023-05-21T02:15:18.189Z,5.30
2023-05-21T02:17:48.136Z,5.82
2023-05-21T02:20:17.792Z,5.00
2023-05-21T02:22:48.766Z,5.33
2023-05-21T02:25:19.877Z,5.32
2023-05-21T02:27:54.156Z,5.35
2023-05-21T02:30:24.052Z,5.25
2023-05-21T02:32:53.941Z,5.40
2023-05-21T02:35:23.610Z,5.30
2023-05-21T02:37:53.168Z,5.63
2023-05-21T02:40:22.949Z,5.60
2023-05-21T02:42:55.208Z,5.55
2023-05-21T02:45:24.838Z,5.25
2023-05-21T02:47:55.362Z,5.77
2023-05-21T02:50:25.190Z,5.10
2023-05-21T02:52:59.862Z,5.18
2023-05-21T02:55:29.801Z,4.72
2023-05-21T02:58:01.922Z,5.23
2023-05-21T03:00:31.653Z,5.45
2023-05-21T03:03:02.930Z,4.85
2023-05-21T03:05:32.509Z,5.60
2023-05-21T03:08:02.031Z,4.83
2023-05-21T03:10:32.100Z,5.30
2023-05-21T03:13:06.421Z,5.47
2023-05-21T03:15:39.468Z,4.93
2023-05-21T03:18:09.267Z,4.60
2023-05-21T03:20:43.771Z,5.20
2023-05-21T03:23:19.956Z,5.10
2023-05-21T03:25:50.970Z,4.90
2023-05-21T03:28:23.166Z,4.90
2023-05-21T03:30:53.736Z,4.30
2023-05-21T03:33:42.907Z,5.18
2023-05-21T03:36:26.258Z,4.82
2023-05-21T03:38:55.903Z,4.68
2023-05-21T03:41:26.336Z,5.38
2023-05-21T03:44:08.402Z,4.87
2023-05-21T03:47:00.775Z,4.80
2023-05-21T03:49:33.319Z,4.68
2023-05-21T03:52:02.825Z,4.95
2023-05-21T03:54:32.368Z,4.43
2023-05-21T03:57:06.378Z,5.40
2023-05-21T03:59:38.982Z,4.53
2023-05-21T04:02:08.557Z,4.45
2023-05-21T04:04:38.211Z,4.70
2023-05-21T04:07:14.656Z,4.73
2023-05-21T04:09:44.711Z,5.23
2023-05-21T04:12:15.819Z,4.57
2023-05-21T04:14:47.959Z,5.03
2023-05-21T04:17:19.312Z,5.47
2023-05-21T04:19:49.022Z,5.03
2023-05-21T04:22:18.561Z,5.30
2023-05-21T04:24:48.973Z,5.43
2023-05-21T04:27:23.841Z,4.90
2023-05-21T04:29:58.217Z,4.78
2023-05-21T04:32:28.728Z,4.10
2023-05-21T04:34:58.335Z,5.23
2023-05-21T04:37:28.158Z,4.33
2023-05-21T04:39:58.595Z,5.10
2023-05-21T04:42:30.126Z,4.43
2023-05-21T04:45:02.271Z,4.70
2023-05-21T04:47:35.723Z,5.20
2023-05-21T04:50:07.138Z,5.10
2023-05-21T04:52:37.548Z,4.80
2023-05-21T04:55:08.291Z,5.30
2023-05-21T04:57:38.046Z,5.10
2023-05-21T05:00:12.125Z,5.82
2023-05-21T05:02:45.308Z,5.38
2023-05-21T05:05:15.197Z,4.90
2023-05-21T05:07:44.831Z,5.40
2023-05-21T05:10:14.417Z,5.25
2023-05-21T05:12:43.964Z,4.80
2023-05-21T05:15:16.306Z,4.88
2023-05-21T05:17:48.410Z,5.68
2023-05-21T05:20:18.181Z,5.55
2023-05-21T05:22:47.782Z,6.03
2023-05-21T05:25:17.343Z,5.65
2023-05-21T05:27:47.759Z,5.75
2023-05-21T05:30:19.939Z,5.40
2023-05-21T05:32:49.557Z,6.20
2023-05-21T05:35:19.613Z,5.53
2023-05-21T05:37:49.121Z,5.60
2023-05-21T05:40:18.934Z,6.28
2023-05-21T05:42:49.586Z,6.70
2023-05-21T05:45:22.651Z,6.53
2023-05-21T05:50:21.748Z,6.10
2023-05-21T05:52:51.404Z,6.93
2023-05-21T05:55:22.133Z,6.75
2023-05-21T05:57:51.656Z,6.85
2023-05-21T06:00:23.976Z,6.70
2023-05-21T06:02:54.785Z,6.88
2023-05-21T06:05:24.634Z,6.90
2023-05-21T06:07:54.217Z,7.13
2023-05-21T06:10:23.807Z,7.13
2023-05-21T06:12:53.358Z,7.50
2023-05-21T06:15:25.438Z,7.43
2023-05-21T06:17:55.069Z,7.60
2023-05-21T06:20:24.675Z,7.10
2023-05-21T06:22:54.181Z,7.68
2023-05-21T06:25:23.787Z,7.70
2023-05-21T06:27:53.336Z,7.65
2023-05-21T06:30:30.758Z,7.47
2023-05-21T06:33:00.375Z,8.48
2023-05-21T06:35:30.090Z,7.53
2023-05-21T06:37:59.638Z,8.60
2023-05-21T06:40:29.184Z,8.40
2023-05-21T06:43:01.086Z,7.93
2023-05-21T06:45:41.940Z,8.50
2023-05-21T06:48:29.255Z,8.65
2023-05-21T06:50:59.073Z,8.75
2023-05-21T06:53:29.142Z,8.38
2023-05-21T06:55:58.668Z,9.02
2023-05-21T06:58:43.904Z,10.10
2023-05-21T07:01:16.619Z,9.32
2023-05-21T07:03:46.643Z,9.55
2023-05-21T07:06:16.951Z,10.00
2023-05-21T07:08:46.538Z,10.38
2023-05-21T07:11:16.361Z,8.75
2023-05-21T07:13:46.143Z,10.13
2023-05-21T07:16:19.370Z,9.10
2023-05-21T07:18:51.085Z,8.65
2023-05-21T07:21:20.743Z,9.95
2023-05-21T07:23:51.551Z,10.32
2023-05-21T07:26:21.582Z,11.48
2023-05-21T07:28:51.157Z,10.38
2023-05-21T07:31:23.329Z,11.23
2023-05-21T07:33:54.746Z,10.57
2023-05-21T07:36:29.762Z,10.13
2023-05-21T07:38:59.265Z,11.30
2023-05-21T07:41:29.102Z,11.25
2023-05-21T07:44:01.733Z,11.63
2023-05-21T07:46:33.863Z,12.00
2023-05-21T07:49:03.399Z,12.23
2023-05-21T07:51:32.983Z,12.30
2023-05-21T07:54:02.500Z,13.38
2023-05-21T07:56:36.297Z,13.07
2023-05-21T07:59:07.995Z,11.80
2023-05-21T08:01:41.317Z,12.25
2023-05-21T08:04:11.057Z,12.27
2023-05-21T08:06:40.799Z,11.38
2023-05-21T08:09:10.453Z,13.23
2023-05-21T08:11:40.674Z,12.65
2023-05-21T08:14:10.340Z,14.57
2023-05-21T08:16:42.620Z,14.45
2023-05-21T08:19:12.235Z,14.65
2023-05-21T08:21:41.833Z,14.07
2023-05-21T08:24:11.730Z,14.32
2023-05-21T08:26:41.297Z,13.95
2023-05-21T08:29:10.850Z,13.05
2023-05-21T08:31:43.306Z,12.68
2023-05-21T08:34:12.836Z,15.05
2023-05-21T08:36:50.134Z,14.38
2023-05-21T08:39:54.710Z,14.00
2023-05-21T08:42:38.865Z,15.82
2023-05-21T08:45:10.503Z,15.00
2023-05-21T08:47:45.435Z,13.77
2023-05-21T08:50:19.689Z,15.27
2023-05-21T08:52:50.377Z,14.77
2023-05-21T08:55:20.495Z,15.65
2023-05-21T08:57:51.548Z,15.32
2023-05-21T09:00:21.647Z,15.50
2023-05-21T09:02:54.803Z,14.77
2023-05-21T09:05:26.876Z,16.13
2023-05-21T09:08:04.862Z,15.80
2023-05-21T09:10:44.054Z,15.35
2023-05-21T09:13:14.702Z,15.65
2023-05-21T09:15:44.416Z,15.32
2023-05-21T09:18:17.772Z,15.48
2023-05-21T09:21:29.197Z,16.60
2023-05-21T09:24:03.259Z,15.73
2023-05-21T09:26:32.768Z,15.98
2023-05-21T09:29:06.202Z,16.27
2023-05-21T09:31:36.929Z,16.30
2023-05-21T09:34:09.086Z,16.17
2023-05-21T09:36:40.727Z,17.30
2023-05-21T09:39:11.954Z,15.60
2023-05-21T09:41:45.107Z,16.80
2023-05-21T09:44:14.752Z,15.30
2023-05-21T09:46:44.617Z,15.65
2023-05-21T09:49:26.852Z,15.25
2023-05-21T09:51:58.974Z,16.20
2023-05-21T09:54:28.908Z,16.17
2023-05-21T09:56:58.414Z,15.88
2023-05-21T09:59:37.982Z,15.90
2023-05-21T10:02:19.235Z,15.90
2023-05-21T10:04:54.382Z,15.60
2023-05-21T10:07:26.356Z,16.88
2023-05-21T10:09:58.115Z,17.08
2023-05-21T10:12:28.946Z,15.35
2023-05-21T10:15:03.988Z,15.93
2023-05-21T10:17:34.042Z,15.98
2023-05-21T10:20:07.481Z,15.15
2023-05-21T10:22:38.286Z,15.32
2023-05-21T10:25:09.988Z,16.25
2023-05-21T10:27:40.225Z,14.25
2023-05-21T10:30:10.592Z,15.40
2023-05-21T10:32:43.670Z,16.02
2023-05-21T10:35:18.786Z,15.93
2023-05-21T10:37:48.931Z,17.67
2023-05-21T10:40:18.442Z,15.60
2023-05-21T10:43:16.164Z,14.45
2023-05-21T10:46:25.107Z,15.00
2023-05-21T10:49:05.057Z,14.23
2023-05-21T10:51:48.060Z,15.07
2023-05-21T10:54:53.004Z,15.18
2023-05-21T10:57:42.322Z,15.45
2023-05-21T11:00:15.035Z,14.32
2023-05-21T11:02:46.056Z,15.90
2023-05-21T11:05:15.669Z,14.25
2023-05-21T11:08:01.729Z,16.20
2023-05-21T11:10:40.875Z,15.20
2023-05-21T11:13:19.879Z,14.10
2023-05-21T11:16:10.718Z,15.23
2023-05-21T11:19:04.692Z,15.63
2023-05-21T11:21:37.573Z,14.13
2023-05-21T11:24:11.348Z,14.38
2023-05-21T11:27:04.603Z,13.13
2023-05-21T11:29:44.368Z,14.55
2023-05-21T11:32:17.588Z,13.80
2023-05-21T11:34:48.759Z,12.52
2023-05-21T11:37:37.979Z,13.85
2023-05-21T11:40:26.365Z,13.40
2023-05-21T11:42:57.299Z,13.07
2023-05-21T11:45:31.232Z,14.13
2023-05-21T11:48:01.064Z,13.43
2023-05-21T11:50:33.765Z,13.98
2023-05-21T11:53:03.517Z,12.63
2023-05-21T11:55:38.836Z,13.70
2023-05-21T11:58:10.840Z,13.00
2023-05-21T12:00:42.035Z,13.38
2023-05-21T12:03:13.260Z,13.43
2023-05-21T12:05:47.783Z,13.02
2023-05-21T12:08:25.552Z,13.50
2023-05-21T12:11:02.077Z,13.52
2023-05-21T12:13:32.253Z,13.32
2023-05-21T12:16:01.867Z,12.98
2023-05-21T12:18:31.436Z,13.18
2023-05-21T12:21:01.097Z,13.75
2023-05-21T12:23:31.689Z,13.15
2023-05-21T12:26:03.936Z,12.88
2023-05-21T12:28:33.569Z,14.45
2023-05-21T12:31:03.107Z,13.75
2023-05-21T12:33:37.054Z,14.00
2023-05-21T12:36:07.255Z,12.93
2023-05-21T12:38:36.876Z,13.63
2023-05-21T12:41:09.504Z,14.25
2023-05-21T12:43:40.106Z,13.90
2023-05-21T12:46:09.749Z,13.80
2023-05-21T12:48:39.327Z,13.85
2023-05-21T12:51:08.969Z,12.45
2023-05-21T12:53:41.642Z,12.70
2023-05-21T12:56:15.516Z,12.95
2023-05-21T12:58:45.926Z,13.52
2023-05-21T13:01:15.562Z,13.40
2023-05-21T13:03:45.190Z,12.85
2023-05-21T13:06:16.193Z,13.10
2023-05-21T13:08:45.717Z,13.45
2023-05-21T13:11:17.822Z,14.00
2023-05-21T13:13:47.375Z,12.98
2023-05-21T13:16:16.935Z,13.35
2023-05-21T13:18:46.507Z,13.27
2023-05-21T13:21:16.084Z,13.13
2023-05-21T13:23:45.718Z,13.65
2023-05-21T13:26:17.800Z,12.40
2023-05-21T13:28:47.300Z,13.32
2023-05-21T13:31:16.880Z,13.45
2023-05-21T13:33:46.464Z,13.77
2023-05-21T13:36:16.171Z,12.63
2023-05-21T13:38:45.673Z,12.93
2023-05-21T13:41:17.801Z,12.85
2023-05-21T13:43:47.453Z,12.93
2023-05-21T13:46:17.056Z,12.90
2023-05-21T13:48:46.979Z,13.48
2023-05-21T13:51:30.865Z,13.10
2023-05-21T13:54:06.200Z,13.32
2023-05-21T13:56:39.811Z,13.05
2023-05-21T13:59:09.552Z,12.93
2023-05-21T14:01:39.250Z,13.90
2023-05-21T14:04:08.753Z,13.60
2023-05-21T14:06:38.543Z,13.82
2023-05-21T14:09:08.163Z,13.80
2023-05-21T14:11:41.595Z,13.10
2023-05-21T14:14:11.660Z,13.10
2023-05-21T14:16:41.916Z,13.25
2023-05-21T14:19:11.455Z,13.90
2023-05-21T14:21:41.130Z,13.50
2023-05-21T14:24:10.679Z,14.13
2023-05-21T14:26:43.694Z,13.18
2023-05-21T14:29:13.249Z,13.07
2023-05-21T14:31:42.786Z,13.85
2023-05-21T14:34:12.300Z,13.88
2023-05-21T14:36:41.922Z,13.32
2023-05-21T14:39:11.416Z,14.75
2023-05-21T14:41:43.830Z,13.43
2023-05-21T14:46:42.761Z,13.88
2023-05-21T14:49:12.418Z,13.45
2023-05-21T14:51:43.759Z,15.00
2023-05-21T14:54:13.284Z,13.50
2023-05-21T14:56:45.344Z,13.38
2023-05-21T14:59:15.012Z,14.50
2023-05-21T15:01:44.666Z,14.35
2023-05-21T15:04:14.301Z,14.55
2023-05-21T15:06:44.008Z,13.77
2023-05-21T15:09:13.535Z,14.98
2023-05-21T15:11:46.548Z,15.13
2023-05-21T15:14:16.052Z,14.38
2023-05-21T15:16:45.525Z,14.73
2023-05-21T15:19:15.086Z,14.35
2023-05-21T15:21:44.604Z,14.32
2023-05-21T15:24:14.131Z,14.50
2023-05-21T15:26:46.333Z,14.30
2023-05-21T15:29:15.826Z,14.32
2023-05-21T15:31:45.307Z,15.13
2023-05-21T15:34:14.841Z,14.73
2023-05-21T15:36:44.335Z,13.88
2023-05-21T15:39:13.804Z,14.00
2023-05-21T15:41:46.507Z,14.70
2023-05-21T15:44:15.996Z,13.93
2023-05-21T15:46:45.492Z,13.65
2023-05-21T15:49:14.998Z,14.30
2023-05-21T15:51:44.723Z,14.40
2023-05-21T15:54:14.247Z,13.77
2023-05-21T15:56:47.383Z,13.80
2023-05-21T15:59:16.995Z,15.02
2023-05-21T16:01:46.520Z,14.25
2023-05-21T16:04:17.104Z,13.35
2023-05-21T16:06:47.603Z,15.13
2023-05-21T16:09:17.215Z,14.13
2023-05-21T16:11:49.331Z,14.50
2023-05-21T16:14:18.930Z,14.52
2023-05-21T16:16:48.430Z,13.60
2023-05-21T16:19:18.106Z,14.10
2023-05-21T16:21:47.605Z,13.35
2023-05-21T16:24:17.118Z,13.65
2023-05-21T16:26:49.808Z,14.38
2023-05-21T16:29:19.509Z,13.27
2023-05-21T16:31:50.251Z,14.23
2023-05-21T16:34:19.793Z,15.32
2023-05-21T16:36:49.302Z,15.07
2023-05-21T16:39:18.802Z,14.98
2023-05-21T16:41:50.977Z,14.57
2023-05-21T16:44:20.608Z,15.63
2023-05-21T16:46:50.186Z,14.73
2023-05-21T16:49:19.654Z,15.30
2023-05-21T16:51:49.250Z,14.77
2023-05-21T16:54:18.838Z,16.02
2023-05-21T16:56:50.950Z,15.48
2023-05-21T16:59:20.608Z,15.70
2023-05-21T17:01:50.274Z,15.02
2023-05-21T17:04:21.104Z,15.45
2023-05-21T17:06:50.708Z,14.77
2023-05-21T17:09:20.333Z,15.45
2023-05-21T17:11:52.413Z,14.63
2023-05-21T17:14:33.121Z,13.98
2023-05-21T17:17:03.282Z,14.40
2023-05-21T17:19:33.088Z,14.07
2023-05-21T17:22:02.854Z,13.65
2023-05-21T17:24:32.641Z,14.55
2023-05-21T17:27:04.908Z,14.93
2023-05-21T17:29:34.937Z,14.38
2023-05-21T17:32:04.589Z,13.93
2023-05-21T17:34:34.337Z,12.75
2023-05-21T17:37:04.144Z,14.75
2023-05-21T17:39:33.783Z,13.95
2023-05-21T17:42:06.253Z,13.80
2023-05-21T17:47:05.834Z,12.75
2023-05-21T17:49:35.584Z,14.32
2023-05-21T17:52:05.582Z,13.75
2023-05-21T17:54:35.276Z,12.88
2023-05-21T17:57:07.644Z,12.43
2023-05-21T17:59:40.400Z,13.25
2023-05-21T18:02:10.412Z,12.93
2023-05-21T18:04:39.920Z,13.18
2023-05-21T18:07:09.457Z,12.75
2023-05-21T18:09:38.966Z,13.77
2023-05-21T18:12:11.760Z,13.23
2023-05-21T18:14:41.390Z,12.88
2023-05-21T18:17:11.067Z,13.27
2023-05-21T18:19:40.712Z,13.15
2023-05-21T18:22:10.780Z,13.80
2023-05-21T18:24:40.427Z,13.60
2023-05-21T18:27:12.512Z,13.05
2023-05-21T18:29:42.031Z,13.60
2023-05-21T18:32:11.867Z,11.80
2023-05-21T18:34:42.978Z,13.45
2023-05-21T18:37:12.536Z,13.50
2023-05-21T18:39:42.054Z,13.13
2023-05-21T18:42:14.463Z,12.80
2023-05-21T18:47:16.365Z,12.90
2023-05-21T18:49:46.061Z,13.43
2023-05-21T18:52:15.581Z,12.95
2023-05-21T18:54:45.118Z,13.05
2023-05-21T18:57:17.192Z,12.77
2023-05-21T18:59:46.788Z,13.00
2023-05-21T19:02:16.309Z,14.07
2023-05-21T19:04:46.107Z,12.75
2023-05-21T19:07:16.041Z,13.52
2023-05-21T19:09:45.686Z,11.88
2023-05-21T19:12:17.803Z,12.13
2023-05-21T19:14:47.576Z,12.77
2023-05-21T19:17:17.061Z,12.32
2023-05-21T19:19:46.574Z,12.85
2023-05-21T19:22:18.296Z,12.68
2023-05-21T19:24:50.575Z,12.75
2023-05-21T19:27:23.179Z,11.70
2023-05-21T19:29:52.681Z,11.70
2023-05-21T19:32:23.838Z,12.88
2023-05-21T19:34:53.408Z,11.50
2023-05-21T19:37:22.995Z,11.48
2023-05-21T19:39:52.487Z,10.82
2023-05-21T19:42:24.621Z,10.95
2023-05-21T19:44:54.120Z,11.90
2023-05-21T19:47:23.667Z,11.30
2023-05-21T19:49:53.187Z,11.43
2023-05-21T19:52:22.696Z,10.90
2023-05-21T19:54:52.206Z,11.15
2023-05-21T19:57:24.429Z,10.82
2023-05-21T19:59:53.981Z,10.30
2023-05-21T20:02:24.222Z,10.50
2023-05-21T20:04:56.869Z,10.60
2023-05-21T20:07:26.678Z,10.40
2023-05-21T20:09:56.183Z,10.30
2023-05-21T20:12:28.322Z,10.38
2023-05-21T20:14:59.603Z,10.70
2023-05-21T20:17:30.758Z,9.55
2023-05-21T20:20:01.472Z,11.15
2023-05-21T20:22:31.087Z,10.68
2023-05-21T20:25:05.549Z,10.50
2023-05-21T20:27:38.979Z,10.25
2023-05-21T20:30:10.431Z,11.27
2023-05-21T20:32:40.215Z,9.45
2023-05-21T20:35:11.717Z,10.52
2023-05-21T20:37:41.398Z,10.82
2023-05-21T20:40:14.800Z,10.02
2023-05-21T20:42:48.435Z,10.27
2023-05-21T20:45:18.600Z,9.95
2023-05-21T20:47:50.196Z,9.93
2023-05-21T20:50:21.813Z,9.88
2023-05-21T20:52:52.129Z,9.10
2023-05-21T20:55:21.634Z,10.35
2023-05-21T20:57:53.763Z,9.90
2023-05-21T21:00:24.809Z,10.45
2023-05-21T21:02:54.807Z,9.90
2023-05-21T21:05:25.464Z,9.75
2023-05-21T21:07:56.024Z,9.95
2023-05-21T21:10:26.113Z,10.20
2023-05-21T21:12:58.356Z,9.73
2023-05-21T21:15:27.930Z,9.73
2023-05-21T21:17:57.534Z,10.00
2023-05-21T21:20:27.080Z,9.95
2023-05-21T21:22:56.596Z,10.25
2023-05-21T21:25:26.088Z,10.55
2023-05-21T21:27:58.248Z,10.40
2023-05-21T21:30:27.875Z,10.38
2023-05-21T21:32:57.394Z,10.05
2023-05-21T21:35:27.001Z,9.52
2023-05-21T21:37:56.604Z,9.52
2023-05-21T21:40:27.449Z,9.90
2023-05-21T21:42:59.536Z,10.43
2023-05-21T21:45:29.121Z,9.88
2023-05-21T21:47:58.863Z,10.15
2023-05-21T21:50:28.610Z,9.35
2023-05-21T21:52:58.125Z,9.70
2023-05-21T21:55:27.661Z,9.63
2023-05-21T21:57:59.827Z,10.52
2023-05-21T22:00:29.849Z,9.15
2023-05-21T22:02:59.558Z,9.50
2023-05-21T22:05:31.462Z,9.65
2023-05-21T22:08:01.086Z,9.63
2023-05-21T22:10:30.659Z,9.70
2023-05-21T22:13:02.801Z,9.32
2023-05-21T22:15:32.532Z,9.27
2023-05-21T22:18:03.393Z,9.30
2023-05-21T22:20:33.291Z,9.18
2023-05-21T22:23:02.824Z,9.35
2023-05-21T22:25:32.551Z,8.90
2023-05-21T22:28:04.670Z,9.80
2023-05-21T22:30:34.198Z,8.95
2023-05-21T22:33:03.906Z,8.57
2023-05-21T22:35:33.526Z,9.20
2023-05-21T22:38:03.039Z,9.40
2023-05-21T22:40:32.518Z,9.13
2023-05-21T22:43:05.196Z,9.40
2023-05-21T22:45:36.043Z,8.90
2023-05-21T22:48:09.332Z,8.90
2023-05-21T22:50:39.555Z,8.85
2023-05-21T22:53:09.382Z,9.05
2023-05-21T22:55:38.919Z,9.27
2023-05-21T22:58:10.996Z,9.40
2023-05-21T23:00:40.880Z,8.82
2023-05-21T23:03:11.421Z,9.05
2023-05-21T23:05:41.061Z,9.02
2023-05-21T23:08:10.864Z,9.48
2023-05-21T23:10:40.672Z,8.85
2023-05-21T23:13:13.136Z,8.40
2023-05-21T23:15:44.145Z,8.68
2023-05-21T23:18:14.099Z,9.10
2023-05-21T23:20:43.885Z,9.48
2023-05-21T23:23:13.999Z,8.95
2023-05-21T23:25:43.617Z,9.30
2023-05-21T23:28:15.747Z,8.43
2023-05-21T23:30:45.313Z,7.80
2023-05-21T23:33:15.307Z,8.82
2023-05-21T23:35:44.860Z,8.95
2023-05-21T23:38:14.411Z,8.98
2023-05-21T23:40:44.713Z,8.23
2023-05-21T23:43:16.856Z,9.13
2023-05-21T23:45:46.770Z,8.90
2023-05-21T23:48:16.312Z,8.35
2023-05-21T23:50:45.921Z,9.63
2023-05-21T23:53:15.432Z,8.90
2023-05-21T23:55:44.950Z,8.43
2023-05-21T23:58:17.014Z,8.55
